Time;durP1;ratioP1;P1;durP2;ratioP2;P2;SDS_P1;SDS_P2;PMS_P1;PMS_P2;Temp;Humidity;BMP_temperature;BMP_pressure;BME280_temperature;BME280_humidity;BME280_pressure;Samples;Min_cycle;Max_cycle;Signal;HPM_P1;HPM_P2
2020/12/12 00:00:58;;;;;;;;;;;16.80;99.90;;;16.17;100.00;101104.44;5034683;28;20002;-63
2020/12/12 00:03:25;;;;;;;;;;;16.90;99.90;;;16.17;100.00;101114.56;5034396;28;19932;-63
2020/12/12 00:05:52;;;;;;;;;;;16.90;99.90;;;16.15;100.00;101111.34;5034958;28;20023;-63
2020/12/12 00:08:19;;;;;;;;;;;16.80;99.90;;;16.14;100.00;101104.28;5034413;28;20063;-63
2020/12/12 00:10:47;;;;;;;;;;;16.80;99.90;;;16.14;100.00;101105.06;5034314;28;20027;-64
2020/12/12 00:13:14;;;;;;;;;;;16.80;99.90;;;16.13;100.00;101106.22;5035071;28;20014;-63
2020/12/12 00:15:42;;;;;;;;;;;16.80;99.90;;;16.13;100.00;101102.69;5034981;28;19979;-63
2020/12/12 00:18:10;;;;;;;;;;;16.80;99.90;;;16.13;100.00;101100.75;5034294;28;19983;-63
2020/12/12 00:20:37;;;;;;;;;;;16.80;99.90;;;16.14;100.00;101098.84;5034131;28;20079;-64
2020/12/12 00:23:04;;;;;;;;;;;16.80;99.90;;;16.16;100.00;101097.38;5034859;28;19947;-63
2020/12/12 00:25:31;;;;;;;;;;;16.80;99.90;;;16.16;100.00;101097.38;5034962;28;20453;-63
2020/12/12 00:27:58;;;;;;;;;;;16.80;99.90;;;16.17;100.00;101101.69;5034358;28;19969;-63
2020/12/12 00:30:26;;;;;;;;;;;16.90;99.90;;;16.17;100.00;101093.50;5033846;28;20366;-64
2020/12/12 00:32:53;;;;;;;;;;;16.90;99.90;;;16.15;100.00;101090.31;5034327;28;20343;-63
2020/12/12 00:35:21;;;;;;;;;;;16.80;99.90;;;16.12;100.00;101082.78;5034810;28;19925;-64
2020/12/12 00:37:48;;;;;;;;;;;16.80;99.90;;;16.11;100.00;101081.16;5034073;28;19971;-63
2020/12/12 00:40:15;;;;;;;;;;;16.80;99.90;;;16.11;100.00;101081.16;5033743;28;20385;-63
2020/12/12 00:42:42;;;;;;;;;;;16.80;99.90;;;16.10;100.00;101078.75;5034520;28;20405;-63
2020/12/12 00:45:09;;;;;;;;;;;16.70;99.90;;;16.11;100.00;101085.84;5034515;28;20023;-63
2020/12/12 00:47:36;;;;;;;;;;;16.80;99.90;;;16.13;100.00;101075.41;5034129;28;19975;-63
2020/12/12 00:50:03;;;;;;;;;;;16.80;99.90;;;16.12;100.00;101080.03;5033244;28;19980;-63
2020/12/12 00:52:31;;;;;;;;;;;16.80;99.90;;;16.10;100.00;101082.28;5033911;28;19968;-63
2020/12/12 00:54:58;;;;;;;;;;;16.80;99.90;;;16.09;100.00;101080.69;5034499;28;20023;-63
2020/12/12 00:57:25;;;;;;;;;;;16.80;99.90;;;16.07;100.00;101072.03;5033838;28;20020;-63
2020/12/12 00:59:52;;;;;;;;;;;16.80;99.90;;;16.07;100.00;101071.22;5033518;28;19964;-63
2020/12/12 01:02:19;;;;;;;;;;;16.70;99.90;;;16.08;100.00;101073.63;5033678;28;19929;-63
2020/12/12 01:04:46;;;;;;;;;;;16.80;99.90;;;16.08;100.00;101065.44;5034291;28;20024;-63
2020/12/12 01:07:14;;;;;;;;;;;16.80;99.90;;;16.08;100.00;101064.66;5033819;28;19972;-63
2020/12/12 01:09:42;;;;;;;;;;;16.70;99.90;;;16.08;100.00;101061.91;5033487;28;19948;-63
2020/12/12 01:12:09;;;;;;;;;;;16.70;99.90;;;16.06;100.00;101064.97;5033142;28;19932;-63
2020/12/12 01:14:36;;;;;;;;;;;16.70;99.90;;;16.04;100.00;101072.66;5033760;28;20023;-63
2020/12/12 01:17:03;;;;;;;;;;;16.70;99.90;;;16.03;100.00;101065.59;5033783;28;20420;-63
2020/12/12 01:19:31;;;;;;;;;;;16.70;99.90;;;16.04;100.00;101071.84;5033685;28;19929;-63
2020/12/12 01:21:58;;;;;;;;;;;16.70;99.90;;;16.06;100.00;101058.69;5032922;28;19979;-63
2020/12/12 01:24:25;;;;;;;;;;;16.70;99.90;;;16.07;100.00;101066.56;5033597;28;19936;-62
2020/12/12 01:26:53;;;;;;;;;;;16.80;99.90;;;16.08;100.00;101062.69;5033650;28;19932;-63
2020/12/12 01:29:20;;;;;;;;;;;16.80;99.90;;;16.10;100.00;101059.66;5033351;28;19979;-63
2020/12/12 01:31:48;;;;;;;;;;;16.80;99.90;;;16.12;100.00;101069.13;5032442;28;19925;-63
2020/12/12 01:34:15;;;;;;;;;;;16.80;99.90;;;16.14;100.00;101066.09;5033610;28;19925;-63
2020/12/12 01:36:43;;;;;;;;;;;16.80;99.90;;;16.14;100.00;101058.69;5033522;28;19979;-63
2020/12/12 01:39:10;;;;;;;;;;;16.80;99.90;;;16.16;100.00;101072.84;5033113;28;20299;-64
2020/12/12 01:41:37;;;;;;;;;;;16.80;99.90;;;16.17;100.00;101065.47;5032495;28;19925;-63
2020/12/12 01:44:05;;;;;;;;;;;16.90;99.90;;;16.17;100.00;101063.50;5033392;28;19929;-63
2020/12/12 01:46:33;;;;;;;;;;;16.80;99.90;;;16.18;100.00;101067.03;5033069;28;20063;-63
2020/12/12 01:49:01;;;;;;;;;;;16.90;99.90;;;16.17;100.00;101060.78;5033035;28;19929;-63
2020/12/12 01:51:28;;;;;;;;;;;16.90;99.90;;;16.19;100.00;101061.28;5032295;28;19975;-63
2020/12/12 01:53:58;;;;;;;;;;;16.90;99.90;;;16.18;100.00;101051.47;5033305;28;20279;-63
2020/12/12 01:56:26;;;;;;;;;;;16.90;99.90;;;16.16;100.00;101056.47;5033068;28;19951;-63
2020/12/12 01:58:53;;;;;;;;;;;16.80;99.90;;;16.12;100.00;101055.50;5032611;28;19988;-63
2020/12/12 02:01:23;;;;;;;;;;;16.80;99.90;;;16.09;100.00;101061.59;5032081;28;19925;-63
2020/12/12 02:03:51;;;;;;;;;;;16.80;99.90;;;16.05;100.00;101060.63;5033084;28;19929;-63
2020/12/12 02:06:19;;;;;;;;;;;16.70;99.90;;;16.03;100.00;101062.88;5033032;28;19931;-63
2020/12/12 02:08:48;;;;;;;;;;;16.70;99.90;;;16.01;100.00;101062.41;5032467;28;19929;-63
2020/12/12 02:11:15;;;;;;;;;;;16.70;99.90;;;16.01;100.00;101056.13;5031854;28;19929;-63
2020/12/12 02:13:46;;;;;;;;;;;16.70;99.90;;;16.02;100.00;101057.75;5033016;28;19929;-63
2020/12/12 02:16:14;;;;;;;;;;;16.70;99.90;;;16.04;100.00;101053.56;5032855;28;20351;-63
2020/12/12 02:18:42;;;;;;;;;;;16.70;99.90;;;16.06;100.00;101042.31;5032216;28;20441;-63
2020/12/12 02:21:09;;;;;;;;;;;16.70;99.90;;;16.06;100.00;101053.25;5031827;28;19929;-63
2020/12/12 02:23:38;;;;;;;;;;;16.80;99.90;;;16.08;100.00;101049.06;5032751;28;19925;-63
2020/12/12 02:26:05;;;;;;;;;;;16.80;99.90;;;16.06;100.00;101054.03;5032611;28;21000;-63
2020/12/12 02:28:46;;;;;;;;;;;16.80;99.90;;;16.01;100.00;101048.75;5031736;28;19929;-63
2020/12/12 02:31:13;;;;;;;;;;;16.70;99.90;;;15.99;100.00;101053.72;5031581;28;19925;-63
2020/12/12 02:33:40;;;;;;;;;;;16.70;99.90;;;15.99;100.00;101059.16;5032495;28;20382;-63
2020/12/12 02:36:07;;;;;;;;;;;16.70;99.90;;;15.95;100.00;101057.41;5032625;28;19972;-63
2020/12/12 02:38:35;;;;;;;;;;;16.60;99.90;;;15.91;100.00;101059.97;5032011;28;19925;-64
2020/12/12 02:41:03;;;;;;;;;;;16.60;99.90;;;15.88;100.00;101057.88;5031562;28;19979;-63
2020/12/12 02:43:30;;;;;;;;;;;16.60;99.90;;;15.88;100.00;101057.06;5032338;28;19925;-63
2020/12/12 02:45:57;;;;;;;;;;;16.60;99.90;;;15.87;100.00;101053.53;5032504;28;20441;-63
2020/12/12 02:48:25;;;;;;;;;;;16.60;99.90;;;15.87;100.00;101052.75;5031770;28;19925;-63
2020/12/12 02:50:52;;;;;;;;;;;16.60;99.90;;;15.88;100.00;101063.34;5031738;28;20371;-63
2020/12/12 02:53:19;;;;;;;;;;;16.60;99.90;;;15.87;100.00;101061.72;5032268;28;19979;-63
2020/12/12 02:55:46;;;;;;;;;;;16.50;99.90;;;15.86;100.00;101054.69;5032426;28;19925;-63
2020/12/12 02:58:14;;;;;;;;;;;16.50;99.90;;;15.84;100.00;101056.91;5031725;28;20437;-63
2020/12/12 03:00:41;;;;;;;;;;;16.50;99.90;;;15.81;100.00;101054.81;5031797;28;19929;-63
2020/12/12 03:03:08;;;;;;;;;;;16.50;99.90;;;15.78;100.00;101055.44;5032002;28;19929;-63
2020/12/12 03:05:35;;;;;;;;;;;16.50;99.90;;;15.78;100.00;101060.91;5032524;28;19932;-63
2020/12/12 03:08:03;;;;;;;;;;;16.40;99.90;;;15.78;100.00;101060.91;5032012;28;20455;-63
2020/12/12 03:10:30;;;;;;;;;;;16.40;99.90;;;15.78;100.00;101058.19;5031423;28;19925;-64
2020/12/12 03:12:57;;;;;;;;;;;16.40;99.90;;;15.79;100.00;101055.16;5031951;28;20362;-63
2020/12/12 03:15:25;;;;;;;;;;;16.50;99.90;;;15.79;100.00;101060.59;5032405;28;20374;-63
2020/12/12 03:17:52;;;;;;;;;;;16.50;99.90;;;15.79;100.00;101059.78;5031699;28;19983;-63
2020/12/12 03:20:19;;;;;;;;;;;16.40;99.90;;;15.79;100.00;101057.88;5031517;28;20448;-63
2020/12/12 03:22:46;;;;;;;;;;;16.50;99.90;;;15.78;100.00;101048.09;5032018;28;19929;-63
2020/12/12 03:25:13;;;;;;;;;;;16.50;99.90;;;15.79;100.00;101041.50;5032195;28;19932;-63
2020/12/12 03:27:41;;;;;;;;;;;16.40;99.90;;;15.80;100.00;101037.69;5031786;28;19929;-63
2020/12/12 03:30:08;;;;;;;;;;;16.50;99.90;;;15.84;100.00;101040.53;5031320;28;20221;-63
2020/12/12 03:32:36;;;;;;;;;;;16.50;99.90;;;15.87;100.00;101034.44;5031541;28;19929;-63
2020/12/12 03:35:03;;;;;;;;;;;16.50;99.90;;;15.92;100.00;101037.03;5032054;28;19933;-63
2020/12/12 03:37:31;;;;;;;;;;;16.60;99.90;;;15.94;100.00;101033.97;5031791;28;19929;-64
2020/12/12 03:39:58;;;;;;;;;;;16.60;99.90;;;15.93;100.00;101033.16;5033673;28;19929;-63
2020/12/12 03:42:25;;;;;;;;;;;16.60;99.90;;;15.92;100.00;101019.88;5035268;28;20375;-63
2020/12/12 03:44:52;;;;;;;;;;;16.60;99.90;;;15.87;100.00;101026.28;5035782;28;19929;-62
2020/12/12 03:47:19;;;;;;;;;;;16.60;99.90;;;15.87;100.00;101022.75;5035368;28;20424;-62
2020/12/12 03:49:47;;;;;;;;;;;16.50;99.90;;;15.86;100.00;101030.13;5035296;28;19929;-66
2020/12/12 03:52:15;;;;;;;;;;;16.50;99.90;;;15.89;100.00;101028.69;5034591;28;20375;-63
2020/12/12 03:54:42;;;;;;;;;;;16.60;99.90;;;15.90;100.00;101016.66;5035603;28;19960;-63
2020/12/12 03:57:09;;;;;;;;;;;16.60;99.90;;;15.92;100.00;101009.78;5035238;28;19972;-62
2020/12/12 03:59:37;;;;;;;;;;;16.60;99.90;;;15.95;100.00;101013.78;5034964;28;19983;-64
2020/12/12 04:02:04;;;;;;;;;;;16.60;99.90;;;15.96;100.00;101018.91;5034412;28;20003;-64
2020/12/12 04:04:31;;;;;;;;;;;16.60;99.90;;;15.99;100.00;101017.47;5035111;28;20375;-64
2020/12/12 04:06:59;;;;;;;;;;;16.70;99.90;;;16.01;100.00;101016.03;5035175;28;19979;-64
2020/12/12 04:09:26;;;;;;;;;;;16.70;99.90;;;16.03;100.00;101016.50;5034808;28;19925;-65
2020/12/12 04:11:54;;;;;;;;;;;16.70;99.90;;;16.02;100.00;101014.09;5034043;28;19937;-64
2020/12/12 04:14:21;;;;;;;;;;;16.70;99.90;;;15.99;100.00;101010.06;5035142;28;19929;-64
2020/12/12 04:16:50;;;;;;;;;;;16.70;99.90;;;15.99;100.00;101007.34;5034907;28;20338;-64
2020/12/12 04:19:17;;;;;;;;;;;16.70;99.90;;;16.01;100.00;101012.50;5034586;28;19968;-62
2020/12/12 04:21:44;;;;;;;;;;;16.70;99.90;;;16.03;100.00;101005.59;5034041;28;19925;-64
2020/12/12 04:24:12;;;;;;;;;;;16.70;99.90;;;16.04;100.00;101009.13;5034864;28;19937;-63
2020/12/12 04:26:39;;;;;;;;;;;16.70;99.90;;;16.07;100.00;101008.47;5034812;28;20441;-63
2020/12/12 04:29:07;;;;;;;;;;;16.70;99.90;;;16.08;100.00;101001.91;5034407;28;19987;-62
2020/12/12 04:31:34;;;;;;;;;;;16.80;99.90;;;16.09;100.00;101001.56;5033933;28;19986;-65
2020/12/12 04:34:01;;;;;;;;;;;16.80;99.90;;;16.08;100.00;101010.88;5034259;28;20330;-62
2020/12/12 04:36:32;;;;;;;;;;;16.80;99.90;;;16.08;100.00;101005.41;5034792;28;19924;-63
2020/12/12 04:39:00;;;;;;;;;;;16.80;99.90;;;16.11;100.00;101012.19;5034233;28;19925;-63
2020/12/12 04:41:28;;;;;;;;;;;16.80;99.90;;;16.09;100.00;101007.03;5033898;28;20366;-64
2020/12/12 04:43:55;;;;;;;;;;;16.80;99.90;;;16.07;100.00;101012.00;5034134;28;20437;-63
2020/12/12 04:46:23;;;;;;;;;;;16.80;99.90;;;16.08;100.00;101010.09;5034607;28;20279;-63
2020/12/12 04:48:50;;;;;;;;;;;16.80;99.90;;;16.07;100.00;101012.00;5033781;28;19929;-64
2020/12/12 04:51:19;;;;;;;;;;;16.80;99.90;;;16.07;100.00;101001.09;5033213;28;19925;-62
2020/12/12 04:53:46;;;;;;;;;;;16.80;99.90;;;16.09;100.00;101004.31;5034091;28;19929;-62
2020/12/12 04:56:23;;;;;;;;;;;16.80;99.90;;;16.08;100.00;101002.69;5034527;28;19929;-63
2020/12/12 04:58:51;;;;;;;;;;;16.80;99.90;;;16.08;100.00;100997.22;5033564;28;19971;-63
2020/12/12 05:01:19;;;;;;;;;;;16.80;99.90;;;16.10;100.00;101003.19;5033605;28;20394;-63
2020/12/12 05:03:47;;;;;;;;;;;16.80;99.90;;;16.11;100.00;101004.00;5033918;28;19979;-63
2020/12/12 05:06:14;;;;;;;;;;;16.80;99.90;;;16.12;100.00;100995.47;5034242;28;19925;-63
2020/12/12 05:08:41;;;;;;;;;;;16.80;99.90;;;16.13;100.00;100997.09;5033663;28;19979;-63
2020/12/12 05:11:08;;;;;;;;;;;16.80;99.90;;;16.13;100.00;100999.81;5033240;28;19925;-63
2020/12/12 05:13:35;;;;;;;;;;;16.80;99.90;;;16.14;100.00;101003.34;5033704;28;19925;-65
2020/12/12 05:16:03;;;;;;;;;;;16.80;99.90;;;16.14;100.00;101003.34;5033977;28;19929;-64
2020/12/12 05:18:33;;;;;;;;;;;16.80;99.90;;;16.14;100.00;101011.53;5033265;28;19936;-65
2020/12/12 05:21:00;;;;;;;;;;;16.80;99.90;;;16.15;100.00;101015.84;5033283;28;20016;-64
2020/12/12 05:23:28;;;;;;;;;;;16.80;99.90;;;16.14;100.00;101011.53;5033778;28;19979;-64
2020/12/12 05:25:56;;;;;;;;;;;16.80;99.90;;;16.12;100.00;101009.13;5033628;28;19929;-64
2020/12/12 05:28:23;;;;;;;;;;;16.80;99.90;;;16.10;100.00;101011.38;5033021;28;20394;-64
2020/12/12 05:30:52;;;;;;;;;;;16.80;99.90;;;16.10;100.00;101008.63;5032902;28;20421;-65
2020/12/12 05:33:22;;;;;;;;;;;16.80;99.90;;;16.10;100.00;101011.38;5033363;28;19929;-64
2020/12/12 05:35:50;;;;;;;;;;;16.80;99.90;;;16.12;100.00;101013.75;5033339;28;19995;-64
2020/12/12 05:38:17;;;;;;;;;;;16.80;99.90;;;16.14;100.00;101011.53;5033117;28;19925;-65
2020/12/12 05:40:47;;;;;;;;;;;16.80;99.90;;;16.15;100.00;101013.94;5032814;28;19933;-65
2020/12/12 05:43:14;;;;;;;;;;;16.80;99.90;;;16.16;100.00;101014.72;5033178;28;19928;-64
2020/12/12 05:45:43;;;;;;;;;;;16.80;99.90;;;16.17;100.00;101024.53;5033304;28;19929;-65
2020/12/12 05:48:12;;;;;;;;;;;16.80;99.90;;;16.18;100.00;101031.56;5032721;28;19994;-65
2020/12/12 05:50:40;;;;;;;;;;;16.90;99.90;;;16.19;100.00;101027.72;5032493;28;19929;-64
2020/12/12 05:53:07;;;;;;;;;;;16.90;99.90;;;16.17;100.00;101033.50;5033039;28;20413;-64
2020/12/12 05:55:35;;;;;;;;;;;16.90;99.90;;;16.18;100.00;101037.03;5033189;28;19925;-64
2020/12/12 05:58:03;;;;;;;;;;;16.90;99.90;;;16.18;100.00;101032.38;5032607;28;19933;-63
2020/12/12 06:00:31;;;;;;;;;;;16.90;99.90;;;16.19;100.00;101030.47;5032252;28;20339;-63
2020/12/12 06:03:01;;;;;;;;;;;16.90;99.90;;;16.17;100.00;101033.50;5032253;28;20264;-63
2020/12/12 06:05:31;;;;;;;;;;;16.80;99.90;;;16.20;100.00;101032.06;5033359;28;19929;-63
2020/12/12 06:08:01;;;;;;;;;;;16.90;99.90;;;16.21;100.00;101034.47;5032585;28;19948;-62
2020/12/12 06:10:30;;;;;;;;;;;16.90;99.90;;;16.21;100.00;101039.91;5032001;28;20420;-63
2020/12/12 06:12:59;;;;;;;;;;;16.90;99.90;;;16.21;100.00;101037.19;5032800;28;19929;-63
2020/12/12 06:15:35;;;;;;;;;;;16.90;99.90;;;16.23;100.00;101040.38;5032866;28;19952;-63
2020/12/12 06:18:28;;;;;;;;;;;16.90;99.90;;;16.23;100.00;101043.13;5032348;28;19929;-63
2020/12/12 06:20:56;;;;;;;;;;;16.90;99.90;;;16.21;100.00;101042.66;5031885;28;19925;-63
2020/12/12 06:23:24;;;;;;;;;;;16.90;99.90;;;16.22;100.00;101038.81;5032848;28;19929;-63
2020/12/12 06:25:51;;;;;;;;;;;16.90;99.90;;;16.21;100.00;101039.91;5032497;28;19925;-63
2020/12/12 06:28:21;;;;;;;;;;;16.90;99.90;;;16.22;100.00;101041.53;5032127;28;20367;-63
2020/12/12 06:30:50;;;;;;;;;;;16.90;99.90;;;16.22;100.00;101043.47;5031927;28;19936;-63
2020/12/12 06:33:17;;;;;;;;;;;16.90;99.90;;;16.22;100.00;101047.00;5032577;28;20272;-64
2020/12/12 06:35:44;;;;;;;;;;;16.90;99.90;;;16.22;100.00;101049.72;5032438;28;20375;-62
2020/12/12 06:38:21;;;;;;;;;;;16.90;99.90;;;16.21;100.00;101050.03;5032088;28;20325;-63
2020/12/12 06:40:51;;;;;;;;;;;16.90;99.90;;;16.19;100.00;101055.81;5031821;28;20068;-63
2020/12/12 06:43:32;;;;;;;;;;;16.90;99.90;;;16.18;100.00;101054.22;5032700;28;20460;-63
2020/12/12 06:46:00;;;;;;;;;;;16.90;99.90;;;16.17;100.00;101052.59;5032149;28;19929;-63
2020/12/12 06:48:29;;;;;;;;;;;16.90;99.90;;;16.18;100.00;101056.94;5031748;28;20398;-63
2020/12/12 06:50:58;;;;;;;;;;;16.90;99.90;;;16.17;100.00;101060.00;5031555;28;19983;-63
2020/12/12 06:53:26;;;;;;;;;;;16.90;99.90;;;16.17;100.00;101054.53;5032473;28;19925;-63
2020/12/12 06:56:11;;;;;;;;;;;16.90;99.90;;;16.18;100.00;101056.13;5032173;28;19933;-63
2020/12/12 06:58:39;;;;;;;;;;;16.90;99.90;;;16.20;100.00;101067.53;5031750;28;19929;-63
2020/12/12 07:01:29;;;;;;;;;;;16.90;99.90;;;16.22;100.00;101062.56;5031521;28;19972;-63
2020/12/12 07:04:01;;;;;;;;;;;16.90;99.90;;;16.23;100.00;101059.50;5032465;28;19995;-63
2020/12/12 07:06:29;;;;;;;;;;;16.90;99.90;;;16.23;100.00;101066.91;5032280;28;19925;-63
2020/12/12 07:09:01;;;;;;;;;;;16.90;99.90;;;16.24;100.00;101063.03;5031617;28;19935;-63
2020/12/12 07:11:31;;;;;;;;;;;16.90;99.90;;;16.24;100.00;101055.66;5031504;28;19967;-63
2020/12/12 07:13:59;;;;;;;;;;;17.00;99.90;;;16.24;100.00;101066.56;5034560;28;20366;-63
2020/12/12 07:16:26;;;;;;;;;;;17.00;99.90;;;16.24;100.00;101069.28;5036137;28;19925;-63
2020/12/12 07:18:54;;;;;;;;;;;16.90;99.90;;;16.24;100.00;101072.03;5035289;28;19933;-63
2020/12/12 07:21:21;;;;;;;;;;;16.90;99.90;;;16.22;100.00;101074.28;5035204;28;19925;-63
2020/12/12 07:23:49;;;;;;;;;;;16.90;99.90;;;16.22;100.00;101068.81;5036136;28;20363;-63
2020/12/12 07:26:17;;;;;;;;;;;16.90;99.90;;;16.22;100.00;101068.81;5036102;28;20456;-63
2020/12/12 07:28:45;;;;;;;;;;;16.90;99.90;;;16.23;100.00;101081.31;5035377;28;20432;-63
2020/12/12 07:31:12;;;;;;;;;;;16.90;99.90;;;16.25;100.00;101083.75;5035048;28;19925;-63
2020/12/12 07:33:39;;;;;;;;;;;16.90;99.90;;;16.27;100.00;101076.84;5035824;28;19928;-63
2020/12/12 07:36:07;;;;;;;;;;;16.90;99.90;;;16.28;100.00;101077.66;5035352;28;19929;-63
2020/12/12 07:38:39;;;;;;;;;;;17.00;99.90;;;16.30;100.00;101080.84;5035489;28;19925;-63
2020/12/12 07:41:10;;;;;;;;;;;17.00;99.90;;;16.32;100.00;101084.84;5034880;28;19929;-63
2020/12/12 07:43:51;;;;;;;;;;;17.00;99.90;;;16.33;100.00;101097.38;5035782;28;19980;-62
2020/12/12 07:46:18;;;;;;;;;;;17.00;99.90;;;16.31;100.00;101088.72;5035728;28;20345;-63
2020/12/12 07:48:46;;;;;;;;;;;17.00;99.90;;;16.32;100.00;101095.75;5034926;28;19994;-63
2020/12/12 07:51:13;;;;;;;;;;;17.00;99.90;;;16.32;100.00;101100.44;5034703;28;19933;-63
2020/12/12 07:53:41;;;;;;;;;;;17.00;99.90;;;16.31;100.00;101096.91;5035545;28;20379;-64
2020/12/12 07:56:08;;;;;;;;;;;17.00;99.90;;;16.31;100.00;101099.63;5035455;28;19979;-64
2020/12/12 07:58:38;;;;;;;;;;;17.00;99.90;;;16.31;100.00;101096.09;5034875;28;19933;-63
2020/12/12 08:01:06;;;;;;;;;;;17.00;99.90;;;16.31;100.00;101093.38;5034402;28;20349;-65
2020/12/12 08:03:34;;;;;;;;;;;17.00;99.90;;;16.31;100.00;101107.81;5035403;28;19929;-64
2020/12/12 08:06:06;;;;;;;;;;;17.00;99.90;;;16.33;100.00;101107.50;5035222;28;19925;-64
2020/12/12 08:08:34;;;;;;;;;;;17.00;99.90;;;16.33;100.00;101102.84;5034515;28;20367;-62
2020/12/12 08:11:02;;;;;;;;;;;17.00;99.90;;;16.34;100.00;101109.91;5034294;28;20413;-62
2020/12/12 08:13:29;;;;;;;;;;;17.00;99.90;;;16.35;100.00;101111.50;5035228;28;20331;-63
2020/12/12 08:16:03;;;;;;;;;;;17.10;99.90;;;16.37;100.00;101119.38;5035027;28;19979;-62
2020/12/12 08:18:31;;;;;;;;;;;17.10;99.90;;;16.38;100.00;101121.00;5034467;28;19979;-62
2020/12/12 08:21:12;;;;;;;;;;;17.10;99.90;;;16.39;100.00;101119.84;5034314;28;20359;-63
2020/12/12 08:23:40;;;;;;;;;;;17.10;99.90;;;16.40;100.00;101132.38;5034906;28;19925;-63
2020/12/12 08:26:08;;;;;;;;;;;17.10;99.90;;;16.40;100.00;101132.38;5034132;28;19929;-63
2020/12/12 08:28:36;;;;;;;;;;;17.10;99.90;;;16.42;100.00;101135.59;5034289;28;19979;-63
2020/12/12 08:31:14;;;;;;;;;;;17.10;99.90;;;16.42;100.00;101127.41;5034126;28;20104;-63
2020/12/12 08:33:44;;;;;;;;;;;17.10;99.90;;;16.44;100.00;101132.56;5034473;28;20345;-63
2020/12/12 08:36:17;;;;;;;;;;;17.10;99.90;;;16.46;100.00;101133.03;5034737;28;20378;-63
2020/12/12 08:38:52;;;;;;;;;;;17.10;99.90;;;16.49;100.00;101135.91;5033955;28;19929;-63
2020/12/12 08:41:21;;;;;;;;;;;17.20;99.90;;;16.51;100.00;101139.13;5033928;28;19931;-63
2020/12/12 08:43:49;;;;;;;;;;;17.20;99.90;;;16.53;100.00;101139.63;5034703;28;19937;-63
2020/12/12 08:46:16;;;;;;;;;;;17.20;99.90;;;16.55;100.00;101147.50;5034697;28;19980;-63
2020/12/12 08:48:45;;;;;;;;;;;17.20;99.90;;;16.55;100.00;101148.31;5033687;28;20340;-63
2020/12/12 08:51:12;;;;;;;;;;;17.20;99.90;;;16.55;100.00;101150.22;5033713;28;19929;-63
2020/12/12 08:53:41;;;;;;;;;;;17.30;99.90;;;16.55;100.00;101152.97;5034198;28;19929;-63
2020/12/12 08:56:12;;;;;;;;;;;17.30;99.90;;;16.53;100.00;101156.00;5034486;28;19929;-63
2020/12/12 08:58:44;;;;;;;;;;;17.20;99.90;;;16.56;100.00;101165.50;5033694;28;20375;-63
2020/12/12 09:01:13;;;;;;;;;;;17.20;99.90;;;16.56;100.00;101165.50;5033607;28;19979;-63
2020/12/12 09:04:01;;;;;;;;;;;17.30;99.90;;;16.58;100.00;101174.16;5034124;28;20643;-63
2020/12/12 09:06:29;;;;;;;;;;;17.30;99.90;;;16.59;100.00;101173.03;5034244;28;19925;-62
2020/12/12 09:09:05;;;;;;;;;;;17.20;99.90;;;16.59;100.00;101176.59;5033428;28;19979;-63
2020/12/12 09:11:32;;;;;;;;;;;17.30;99.90;;;16.60;100.00;101183.63;5033109;28;19928;-63
2020/12/12 09:13:59;;;;;;;;;;;17.30;99.90;;;16.62;100.00;101183.31;5034038;28;20441;-63
2020/12/12 09:16:27;;;;;;;;;;;17.30;99.90;;;16.62;100.00;101192.31;5034016;28;19925;-63
2020/12/12 09:18:54;;;;;;;;;;;17.30;99.90;;;16.64;100.00;101202.91;5033257;28;19929;-63
2020/12/12 09:21:22;;;;;;;;;;;17.30;99.90;;;16.65;100.00;101199.06;5033044;28;19929;-63
2020/12/12 09:23:49;;;;;;;;;;;17.30;99.90;;;16.64;100.00;101209.19;5033722;28;19929;-63
2020/12/12 09:26:18;;;;;;;;;;;17.30;99.90;;;16.61;100.00;101204.38;5033900;28;19951;-63
2020/12/12 09:28:45;;;;;;;;;;;17.30;99.90;;;16.63;100.00;101204.84;5033083;28;19929;-63
2020/12/12 09:31:14;;;;;;;;;;;17.30;99.90;;;16.66;100.00;101214.31;5033013;28;20371;-63
2020/12/12 09:33:42;;;;;;;;;;;17.40;99.90;;;16.74;100.00;101216.25;5033399;28;19971;-65
2020/12/12 09:36:09;;;;;;;;;;;17.40;99.90;;;16.81;100.00;101219.31;5033567;28;19925;-62
2020/12/12 09:38:37;;;;;;;;;;;17.50;99.90;;;16.86;100.00;101222.69;5033041;28;19929;-63
2020/12/12 09:41:04;;;;;;;;;;;17.50;99.90;;;16.88;100.00;101223.16;5032687;28;20432;-63
2020/12/12 09:43:31;;;;;;;;;;;17.60;99.90;;;16.91;100.00;101221.69;5033803;28;19933;-63
2020/12/12 09:45:59;;;;;;;;;;;17.60;99.90;;;16.88;100.00;101228.63;5033346;28;19925;-62
2020/12/12 09:48:26;;;;;;;;;;;17.60;99.90;;;16.92;100.00;101226.06;5032774;28;19925;-63
2020/12/12 09:50:53;;;;;;;;;;;17.60;99.90;;;16.92;100.00;101226.88;5032554;28;19929;-63
2020/12/12 09:53:20;;;;;;;;;;;17.60;99.90;;;16.87;100.00;101232.47;5033183;28;19929;-63
2020/12/12 09:55:48;;;;;;;;;;;17.60;99.90;;;16.89;100.00;101246.63;5033366;28;19995;-63
2020/12/12 09:58:16;;;;;;;;;;;17.60;99.90;;;16.94;100.00;101245.66;5032595;28;20366;-63
2020/12/12 10:00:43;;;;;;;;;;;17.60;99.90;;;16.97;100.00;101246.94;5032281;28;19933;-63
2020/12/12 10:03:10;;;;;;;;;;;17.70;99.90;;;16.99;100.00;101250.97;5033068;28;19925;-63
2020/12/12 10:05:38;;;;;;;;;;;17.70;99.90;;;17.00;100.00;101249.00;5033199;28;19925;-62
2020/12/12 10:08:05;;;;;;;;;;;17.70;99.90;;;17.05;100.00;101257.06;5032509;28;19979;-62
2020/12/12 10:10:33;;;;;;;;;;;17.70;99.90;;;17.13;100.00;101262.53;5031950;28;19925;-63
2020/12/12 10:13:02;;;;;;;;;;;17.80;99.90;;;17.14;100.00;101255.94;5032836;28;20441;-63
2020/12/12 10:15:29;;;;;;;;;;;17.80;99.90;;;17.13;100.00;101257.06;5033098;28;19925;-63
2020/12/12 10:17:56;;;;;;;;;;;17.80;99.90;;;17.16;100.00;101255.59;5032310;28;20379;-63
2020/12/12 10:20:23;;;;;;;;;;;17.80;99.90;;;17.20;100.00;101262.03;5031670;28;20393;-62
2020/12/12 10:22:51;;;;;;;;;;;17.80;99.90;;;17.24;100.00;101261.06;5032827;28;19929;-63
2020/12/12 10:25:19;;;;;;;;;;;17.90;99.90;;;17.34;100.00;101260.72;5032872;28;19979;-63
2020/12/12 10:27:46;;;;;;;;;;;18.00;99.90;;;17.40;100.00;101261.34;5032494;28;19925;-64
2020/12/12 10:30:15;;;;;;;;;;;18.00;99.90;;;17.39;100.00;101255.09;5031570;28;19979;-63
2020/12/12 10:32:42;;;;;;;;;;;18.00;99.90;;;17.40;100.00;101267.63;5032442;28;19979;-63
2020/12/12 10:35:11;;;;;;;;;;;18.00;99.90;;;17.35;100.00;101265.06;5032705;28;19929;-63
2020/12/12 10:37:39;;;;;;;;;;;18.00;99.90;;;17.32;100.00;101268.47;5032480;28;19929;-63
2020/12/12 10:40:14;;;;;;;;;;;17.90;99.90;;;17.31;100.00;101263.31;5031420;28;20337;-63
2020/12/12 10:42:42;;;;;;;;;;;17.90;99.90;;;17.31;100.00;101263.31;5032532;28;19925;-62
2020/12/12 10:45:09;;;;;;;;;;;17.90;99.90;;;17.38;100.00;101269.09;5032685;28;20437;-63
2020/12/12 10:47:38;;;;;;;;;;;18.00;99.90;;;17.37;100.00;101264.75;5033348;28;19925;-62
2020/12/12 10:50:06;;;;;;;;;;;18.00;99.90;;;17.28;100.00;101264.75;5037920;28;19994;-62
2020/12/12 10:52:34;;;;;;;;;;;17.90;99.90;;;17.26;100.00;101267.03;5038779;28;20336;-63
2020/12/12 10:55:01;;;;;;;;;;;17.90;99.90;;;17.25;100.00;101264.59;5039140;28;19925;-63
2020/12/12 10:57:28;;;;;;;;;;;17.90;99.90;;;17.16;100.00;101256.41;5038720;28;19925;-62
2020/12/12 10:59:55;;;;;;;;;;;17.80;99.90;;;17.12;100.00;101260.09;5038258;28;19925;-62
2020/12/12 11:02:23;;;;;;;;;;;17.80;99.90;;;17.09;100.00;101258.81;5038442;28;19978;-62
2020/12/12 11:04:51;;;;;;;;;;;17.70;99.90;;;17.09;100.00;101261.56;5039012;28;19955;-64
2020/12/12 11:07:18;;;;;;;;;;;17.70;99.90;;;17.07;100.00;101269.28;5038786;28;19978;-64